Airfield :
LOGIN :

Register | Disclaimer

   EN    FR    IT 

 










Legend :    VFR   Marginal VFR   IFR   Intensive IFR   Very Intensive IFR
Visi :
Ceiling :
>= 8 km
>= 3000ft
5 to 8 km
1000 to 3000 ft
1500m to 5 km
500 to 1000 ft
800 to 1500m
200 to 500 ft
< 800m
< 200 ft
Symbols :   Thunderstorms  Fog  Heavy snow  Heavy precipitations  Wind > 20 kt
SIGMETs :     Misc.  Thunderstorms  Icing  Turbulence  Mountain Waves  Volcanic Ashes






- Airport Elevation : -15 ft
- IATA code : RTM


EHRD - Rotterdam Zestienhoven

CURRENT METAR :
  • 182025Z AUTO 28005KT 250V310 9999 FEW042 SCT046 03/01 Q1029 NOSIG

EXPIRED METARs :
  • 181955Z AUTO 28006KT 250V310 9999 FEW015CB 04/01 Q1029 NOSIG
  • 181925Z AUTO 29007KT 260V320 9999 NCD 04/02 Q1029 NOSIG
  • 181855Z AUTO 29007KT 9999 FEW022 04/02 Q1028 NOSIG
  • 181825Z AUTO 28007KT 250V310 9999 FEW023 04/02 Q1028 NOSIG
  • 181755Z AUTO 29007KT 260V320 9999 FEW030 SCT043 04/02 Q1028 NOSIG

TAF TAF EHRD
Valid from the 18 at 18:00 until the 20 at 00:00 UTC


181652Z 1818/1924 29010KT 9999 SCT025
PROB40
TEMPO 1818/1907 7000 -SHRA FEW018CB SCT022
BECMG 1903/1906 35010KT
BECMG 1922/1924 VRB03KT 7000 MIFG



MET'MAP, your aeronautical weather chart ! - Copyright ORBIFLY December 2007 - Disclaimer

ORBIFLY MET'MAP TEAM :

Programming & Development : Alexandra Zaïnal
Concept & original design : Baudouin d'Aumeries
Assistance for programming : Marc-Olivier Méhu
Technical & hardware support : Manuel Goepfert

Contact : metmap@orbifly.com




SOURCES & CREDITS :

   NOAA